Everett, Washington
Current Conditions -  °F | °C
As of 2:53 PM on Thursday 18 Dec 2014 (Local Time) from KPAE Reporting Station
Light Rain Light Rain  
Wind Chill:   Ceiling: 3400
Heat Index:   Visibility: 10mi
Dew Point:   Wind: 7mph
Humidity: 71%   Direction: 150°SSE
Pressure: 29.8"   Gusts: 18mph
Location:  47.98°N, 122.2°W
Report Text: KPAE 182253Z 15006G16KT 10SM -RA BKN034 OVC045 09/04 A2980 RMK AO2 RAE07B47 SLP093 P0000 T00940044
Loading
Personal Weather Stations






























Interactive Weather Map New forecast layout! Learn more

10-Day Weather Forecast

Advertisements
Track Severe Weather on mobile